createdAt,value
2018-12-12T00:01:25.187Z,100653.19
2018-12-12T00:03:59.882Z,100654.56
2018-12-12T00:06:34.542Z,100654.88
2018-12-12T00:09:07.335Z,100649.37
2018-12-12T00:11:41.867Z,100656.19
2018-12-12T00:14:14.462Z,100662.80
2018-12-12T00:16:46.980Z,100662.74
2018-12-12T00:19:19.592Z,100657.50
2018-12-12T00:21:52.222Z,100660.48
2018-12-12T00:24:24.783Z,100649.42
2018-12-12T00:26:57.444Z,100653.11
2018-12-12T00:29:35.658Z,100658.66
2018-12-12T00:32:08.209Z,100657.34
2018-12-12T00:34:40.729Z,100664.48
2018-12-12T00:37:13.478Z,100670.13
2018-12-12T00:39:46.139Z,100664.88
2018-12-12T00:42:18.739Z,100663.32
2018-12-12T00:44:52.233Z,100662.55
2018-12-12T00:47:24.855Z,100658.60
2018-12-12T00:49:57.485Z,100667.91
2018-12-12T00:52:30.124Z,100666.89
2018-12-12T00:55:02.833Z,100671.91
2018-12-12T00:57:35.754Z,100676.80
2018-12-12T01:00:08.517Z,100678.13
2018-12-12T01:02:41.275Z,100682.56
2018-12-12T01:05:13.834Z,100678.56
2018-12-12T01:07:46.414Z,100684.47
2018-12-12T01:10:19.107Z,100688.25
2018-12-12T01:12:51.730Z,100685.70
2018-12-12T01:15:25.040Z,100687.76
2018-12-12T01:17:57.726Z,100686.41
2018-12-12T01:20:30.443Z,100686.17
2018-12-12T01:23:03.663Z,100689.91
2018-12-12T01:25:36.853Z,100686.09
2018-12-12T01:28:09.399Z,100688.23
2018-12-12T01:30:42.642Z,100690.84
2018-12-12T01:33:15.243Z,100691.88
2018-12-12T01:35:47.809Z,100681.11
2018-12-12T01:38:20.432Z,100690.09
2018-12-12T01:40:53.612Z,100689.34
2018-12-12T01:43:26.203Z,100696.75
2018-12-12T01:45:58.790Z,100696.27
2018-12-12T01:48:31.626Z,100700.09
2018-12-12T01:51:04.245Z,100697.28
2018-12-12T01:53:36.822Z,100703.55
2018-12-12T01:56:09.356Z,100703.19
2018-12-12T01:58:41.983Z,100705.97
2018-12-12T02:01:14.541Z,100708.73
2018-12-12T02:03:47.147Z,100709.06
2018-12-12T02:06:19.766Z,100705.79
2018-12-12T02:08:53.378Z,100703.38
2018-12-12T02:11:25.988Z,100696.38
2018-12-12T02:15:28.129Z,100690.85
2018-12-12T02:18:02.911Z,100692.80
2018-12-12T02:20:35.599Z,100692.68
2018-12-12T02:23:08.099Z,100702.11
2018-12-12T02:25:40.757Z,100695.13
2018-12-12T02:28:13.334Z,100703.94
2018-12-12T02:30:45.876Z,100710.98
2018-12-12T02:33:18.414Z,100709.19
2018-12-12T02:35:51.677Z,100709.05
2018-12-12T02:38:24.225Z,100712.17
2018-12-12T02:40:57.897Z,100715.45
2018-12-12T02:43:31.124Z,100725.45
2018-12-12T02:46:03.857Z,100730.27
2018-12-12T02:48:36.542Z,100732.42
2018-12-12T02:51:09.166Z,100729.84
2018-12-12T02:53:43.332Z,100734.06
2018-12-12T02:56:15.872Z,100738.42
2018-12-12T02:58:48.390Z,100733.13
2018-12-12T03:01:20.982Z,100727.97
2018-12-12T03:03:53.586Z,100728.72
2018-12-12T03:06:26.247Z,100726.36
2018-12-12T03:08:58.806Z,100726.47
2018-12-12T03:11:31.282Z,100735.31
2018-12-12T03:14:03.878Z,100736.66
2018-12-12T03:16:37.543Z,100731.91
2018-12-12T03:19:10.092Z,100722.36
2018-12-12T03:21:42.723Z,100724.66
2018-12-12T03:24:15.225Z,100728.42
2018-12-12T03:26:47.937Z,100731.11
2018-12-12T03:29:20.574Z,100732.16
2018-12-12T03:31:54.405Z,100736.86
2018-12-12T03:34:27.025Z,100742.84
2018-12-12T03:36:59.723Z,100743.82
2018-12-12T03:39:35.131Z,100743.08
2018-12-12T03:42:07.746Z,100743.82
2018-12-12T03:44:40.345Z,100742.57
2018-12-12T03:47:12.991Z,100750.98
2018-12-12T03:49:45.522Z,100745.44
2018-12-12T03:52:18.036Z,100748.33
2018-12-12T03:54:50.621Z,100747.19
2018-12-12T03:57:23.966Z,100747.19
2018-12-12T03:59:56.492Z,100742.56
2018-12-12T04:02:29.086Z,100747.67
2018-12-12T04:05:02.183Z,100748.36
2018-12-12T04:07:36.080Z,100744.92
2018-12-12T04:10:08.631Z,100748.17
2018-12-12T04:12:41.964Z,100751.64
2018-12-12T04:15:15.541Z,100751.70
2018-12-12T04:17:48.316Z,100758.54
2018-12-12T04:20:20.899Z,100750.91
2018-12-12T04:22:54.094Z,100746.59
2018-12-12T04:25:26.977Z,100751.48
2018-12-12T04:27:59.664Z,100748.77
2018-12-12T04:30:32.356Z,100755.57
2018-12-12T04:33:04.923Z,100755.48
2018-12-12T04:35:37.513Z,100758.91
2018-12-12T04:38:10.088Z,100755.81
2018-12-12T04:40:44.434Z,100756.64
2018-12-12T04:43:17.048Z,100762.12
2018-12-12T04:45:49.624Z,100763.64
2018-12-12T04:48:23.019Z,100764.38
2018-12-12T04:50:55.661Z,100756.62
2018-12-12T04:53:28.244Z,100753.95
2018-12-12T04:56:00.893Z,100746.22
2018-12-12T04:58:33.505Z,100749.39
2018-12-12T05:01:06.156Z,100757.55
2018-12-12T05:03:38.735Z,100753.62
2018-12-12T05:06:11.387Z,100756.62
2018-12-12T05:08:43.943Z,100758.41
2018-12-12T05:11:16.548Z,100758.36
2018-12-12T14:15:40.383Z,100824.16
2018-12-12T14:18:14.002Z,100828.47
2018-12-12T14:20:46.595Z,100833.86
2018-12-12T14:23:19.196Z,100831.94
2018-12-12T14:25:52.971Z,100833.84
2018-12-12T14:28:28.626Z,100833.84
2018-12-12T14:31:02.108Z,100834.23
2018-12-12T14:33:34.863Z,100834.27
2018-12-12T14:36:07.394Z,100833.69
2018-12-12T14:38:40.048Z,100829.61
2018-12-12T14:41:13.447Z,100833.22
2018-12-12T14:43:46.042Z,100830.30
2018-12-12T14:46:18.593Z,100835.14
2018-12-12T14:48:53.839Z,100835.00
2018-12-12T14:51:26.374Z,100841.09
2018-12-12T14:53:59.064Z,100831.97
2018-12-12T14:56:32.254Z,100832.70
2018-12-12T14:59:04.935Z,100838.46
2018-12-12T15:01:38.504Z,100838.19
2018-12-12T15:04:11.066Z,100831.66
2018-12-12T15:06:44.413Z,100839.30
2018-12-12T15:09:17.011Z,100837.11
2018-12-12T15:11:49.567Z,100833.92
2018-12-12T15:14:22.931Z,100840.31
2018-12-12T15:16:55.500Z,100840.66
2018-12-12T15:19:28.201Z,100843.14
2018-12-12T15:22:00.820Z,100838.33
2018-12-12T15:24:35.564Z,100838.77
2018-12-12T15:27:08.463Z,100835.16
2018-12-12T15:29:41.126Z,100840.64
2018-12-12T15:32:13.770Z,100839.22
2018-12-12T15:34:46.395Z,100841.06
2018-12-12T15:37:19.056Z,100838.02
2018-12-12T15:39:52.759Z,100835.48
2018-12-12T15:42:27.583Z,100829.00
2018-12-12T15:45:00.263Z,100829.03
2018-12-12T15:47:32.982Z,100829.93
2018-12-12T15:50:05.680Z,100831.99
2018-12-12T15:52:38.357Z,100834.20
2018-12-12T15:55:11.044Z,100839.08
2018-12-12T15:57:43.683Z,100833.99
2018-12-12T16:00:16.911Z,100838.33
2018-12-12T16:02:49.576Z,100833.48
2018-12-12T16:05:22.466Z,100835.16
2018-12-12T16:07:55.166Z,100831.03
2018-12-12T16:10:27.807Z,100834.70
2018-12-12T16:13:00.723Z,100838.25
2018-12-12T16:15:35.812Z,100834.22
2018-12-12T16:18:08.510Z,100835.33
2018-12-12T16:20:41.212Z,100833.20
2018-12-12T16:23:13.891Z,100832.34
2018-12-12T16:25:46.813Z,100825.97
2018-12-12T16:28:19.473Z,100823.80
2018-12-12T16:30:52.209Z,100825.92
2018-12-12T16:33:24.923Z,100820.60
2018-12-12T16:35:58.563Z,100825.14
2018-12-12T16:38:35.033Z,100820.88
2018-12-12T16:41:07.917Z,100820.58
2018-12-12T16:43:42.685Z,100826.55
2018-12-12T16:46:17.322Z,100828.94
2018-12-12T16:48:49.994Z,100826.08
2018-12-12T16:51:23.300Z,100827.27
2018-12-12T16:53:55.941Z,100826.44
2018-12-12T16:56:29.182Z,100830.73
2018-12-12T16:59:03.356Z,100826.97
2018-12-12T17:01:36.117Z,100829.34
2018-12-12T17:04:08.682Z,100830.92
2018-12-12T17:06:41.490Z,100829.87
2018-12-12T17:09:14.211Z,100833.39
2018-12-12T17:11:46.856Z,100822.11
2018-12-12T17:14:21.452Z,100828.77
2018-12-12T17:16:54.641Z,100822.89
2018-12-12T17:19:27.202Z,100820.92
2018-12-12T17:21:59.911Z,100820.28
2018-12-12T17:24:32.615Z,100816.25
2018-12-12T17:27:05.334Z,100814.05
2018-12-12T17:29:38.016Z,100808.16
2018-12-12T17:32:10.722Z,100807.57
2018-12-12T17:34:43.373Z,100811.17
2018-12-12T17:37:15.999Z,100816.41
2018-12-12T17:39:48.604Z,100813.24
2018-12-12T17:42:21.888Z,100813.88
2018-12-12T17:44:55.242Z,100813.37
2018-12-12T17:47:28.221Z,100815.45
2018-12-12T17:50:01.299Z,100810.95
2018-12-12T17:52:35.933Z,100819.59
2018-12-12T17:55:09.710Z,100823.50
2018-12-12T17:57:43.624Z,100818.71
2018-12-12T18:00:17.615Z,100818.97
2018-12-12T18:02:53.213Z,100816.98
2018-12-12T18:05:32.041Z,100819.44
2018-12-12T18:08:04.966Z,100815.98
2018-12-12T18:10:37.758Z,100817.19
2018-12-12T18:13:10.636Z,100821.67
2018-12-12T18:15:47.382Z,100816.82
2018-12-12T18:18:23.437Z,100821.46
2018-12-12T18:20:58.523Z,100821.42
2018-12-12T18:23:33.339Z,100819.13
2018-12-12T18:26:08.082Z,100828.70
2018-12-12T18:28:41.413Z,100825.91
2018-12-12T18:31:14.159Z,100834.61
2018-12-12T18:33:49.404Z,100823.52
2018-12-12T18:36:24.156Z,100828.80
2018-12-12T18:38:56.799Z,100828.73
2018-12-12T18:41:29.853Z,100831.34
2018-12-12T18:44:04.594Z,100831.53
2018-12-12T18:46:37.270Z,100833.15
2018-12-12T18:49:09.880Z,100829.06
2018-12-12T18:51:46.237Z,100832.05
2018-12-12T18:54:20.891Z,100835.11
2018-12-12T18:56:56.359Z,100842.55
2018-12-12T18:59:29.007Z,100834.14
2018-12-12T19:02:01.663Z,100843.23
2018-12-12T19:04:34.380Z,100840.30
2018-12-12T19:07:08.082Z,100836.51
2018-12-12T19:09:59.553Z,100833.77
2018-12-12T19:12:34.541Z,100837.72
2018-12-12T19:15:07.881Z,100830.73
2018-12-12T19:17:40.866Z,100830.92
2018-12-12T19:20:14.563Z,100825.36
2018-12-12T19:22:47.121Z,100824.29
2018-12-12T19:25:19.768Z,100824.20
2018-12-12T19:27:52.529Z,100818.41
2018-12-12T19:30:25.163Z,100822.67
2018-12-12T19:37:40.260Z,100809.97
2018-12-12T19:40:13.775Z,100818.22
2018-12-12T19:42:46.354Z,100816.66
2018-12-12T19:45:19.025Z,100814.21
2018-12-12T19:47:57.719Z,100815.63
2018-12-12T19:50:30.361Z,100813.75
2018-12-12T19:53:03.007Z,100817.38
2018-12-12T19:55:35.839Z,100812.89
2018-12-12T19:58:08.826Z,100814.17
2018-12-12T20:00:41.632Z,100813.34
2018-12-12T20:03:15.235Z,100810.73
2018-12-12T20:05:47.911Z,100807.25
2018-12-12T20:08:20.552Z,100808.78
2018-12-12T20:10:53.203Z,100808.56
2018-12-12T20:13:25.956Z,100814.37
2018-12-12T20:15:58.659Z,100811.66
2018-12-12T20:18:31.307Z,100822.41
2018-12-12T20:21:04.000Z,100806.41
2018-12-12T20:23:36.607Z,100806.28
2018-12-12T20:26:09.710Z,100804.99
2018-12-12T20:28:43.583Z,100802.72
2018-12-12T20:31:16.299Z,100804.33
2018-12-12T20:33:48.929Z,100807.25
2018-12-12T20:36:23.720Z,100798.23
2018-12-12T20:38:56.514Z,100806.15
2018-12-12T20:41:30.067Z,100804.67
2018-12-12T20:44:02.794Z,100803.84
2018-12-12T20:46:35.690Z,100806.92
2018-12-12T20:49:08.327Z,100806.82
2018-12-12T20:51:41.089Z,100807.44
2018-12-12T20:54:14.680Z,100811.69
2018-12-12T20:56:47.396Z,100811.20
2018-12-12T20:59:21.446Z,100808.41
2018-12-12T21:01:54.301Z,100803.11
2018-12-12T21:04:27.152Z,100810.36
2018-12-12T21:07:01.372Z,100802.63
2018-12-12T21:09:35.755Z,100808.78
2018-12-12T21:12:08.697Z,100810.05
2018-12-12T21:14:41.454Z,100807.68
2018-12-12T21:17:15.319Z,100814.17
2018-12-12T21:19:47.951Z,100800.29
2018-12-12T21:22:20.617Z,100801.88
2018-12-12T21:24:54.478Z,100800.29
2018-12-12T21:27:27.365Z,100804.37
2018-12-12T21:30:00.223Z,100803.75
2018-12-12T21:32:33.972Z,100796.06
2018-12-12T21:35:07.596Z,100800.53
2018-12-12T21:37:40.778Z,100796.19
2018-12-12T21:40:13.931Z,100792.23
2018-12-12T21:42:47.214Z,100795.03
2018-12-12T21:45:19.847Z,100805.44
2018-12-12T21:47:52.560Z,100799.85
2018-12-12T21:50:25.175Z,100801.52
2018-12-12T21:52:57.789Z,100795.94
2018-12-12T21:55:30.486Z,100793.08
2018-12-12T21:58:04.135Z,100793.63
2018-12-12T22:00:36.725Z,100794.77
2018-12-12T22:03:09.377Z,100794.32
2018-12-12T22:05:42.490Z,100791.91
2018-12-12T22:08:15.473Z,100789.14
2018-12-12T22:10:48.082Z,100790.50
2018-12-12T22:13:20.669Z,100785.56
2018-12-12T22:15:53.267Z,100779.37
2018-12-12T22:19:29.229Z,100777.83
2018-12-12T22:22:01.735Z,100789.41
2018-12-12T22:24:34.509Z,100786.85
2018-12-12T22:27:07.122Z,100784.64
2018-12-12T22:29:39.757Z,100777.42
2018-12-12T22:32:12.370Z,100782.20
2018-12-12T22:34:45.854Z,100779.83
2018-12-12T22:37:18.394Z,100782.56
2018-12-12T22:39:51.000Z,100786.83
2018-12-12T22:42:23.610Z,100787.13
2018-12-12T22:44:56.228Z,100787.66
2018-12-12T22:47:29.046Z,100787.95
2018-12-12T22:50:01.790Z,100782.27
2018-12-12T22:52:35.565Z,100781.48
2018-12-12T22:55:08.289Z,100782.73
2018-12-12T22:57:40.898Z,100788.71
2018-12-12T23:00:19.279Z,100788.71
2018-12-12T23:02:53.907Z,100791.98
2018-12-12T23:05:26.547Z,100786.63
2018-12-12T23:07:59.170Z,100774.24
2018-12-12T23:10:31.786Z,100781.62
2018-12-12T23:13:04.503Z,100779.34
2018-12-12T23:15:37.853Z,100771.65
2018-12-12T23:18:10.564Z,100772.47
2018-12-12T23:20:43.112Z,100782.37
2018-12-12T23:23:15.825Z,100769.52
2018-12-12T23:25:48.456Z,100769.06
2018-12-12T23:28:21.113Z,100770.71
2018-12-12T23:30:53.720Z,100765.14
2018-12-12T23:33:26.314Z,100764.15
2018-12-12T23:35:58.897Z,100772.48
2018-12-12T23:38:31.509Z,100774.12
2018-12-12T23:41:04.187Z,100775.18
2018-12-12T23:43:36.751Z,100768.99
2018-12-12T23:46:09.408Z,100771.00
2018-12-12T23:48:42.083Z,100767.56
2018-12-12T23:51:16.536Z,100760.81
2018-12-12T23:53:49.171Z,100766.38
2018-12-12T23:56:21.711Z,100761.10
2018-12-12T23:58:54.374Z,100753.28
